sensor_id;sensor_type;location;lat;lon;timestamp;pressure;altitude;pressure_sealevel;temperature;humidity
30744;BME280;17486;46.738;7.622;2023-11-18T00:02:19;96089.44;;;6.85;65.00
30744;BME280;17486;46.738;7.622;2023-11-18T00:04:44;96103.03;;;6.93;65.09
30744;BME280;17486;46.738;7.622;2023-11-18T00:07:10;96111.63;;;6.95;64.60
30744;BME280;17486;46.738;7.622;2023-11-18T00:09:35;96067.38;;;6.68;64.96
30744;BME280;17486;46.738;7.622;2023-11-18T00:12:02;96117.78;;;6.89;65.15
30744;BME280;17486;46.738;7.622;2023-11-18T00:14:29;96127.22;;;6.92;64.44
30744;BME280;17486;46.738;7.622;2023-11-18T00:16:54;96123.00;;;6.86;64.86
30744;BME280;17486;46.738;7.622;2023-11-18T00:19:20;96113.47;;;6.90;64.77
30744;BME280;17486;46.738;7.622;2023-11-18T00:21:45;96106.72;;;6.83;64.21
30744;BME280;17486;46.738;7.622;2023-11-18T00:24:11;96088.84;;;6.72;64.23
30744;BME280;17486;46.738;7.622;2023-11-18T00:26:36;96080.41;;;6.63;64.60
30744;BME280;17486;46.738;7.622;2023-11-18T00:29:02;96106.78;;;6.79;64.47
30744;BME280;17486;46.738;7.622;2023-11-18T00:31:27;96109.41;;;6.78;64.39
30744;BME280;17486;46.738;7.622;2023-11-18T00:33:52;96111.25;;;6.71;63.92
30744;BME280;17486;46.738;7.622;2023-11-18T00:36:19;96102.78;;;6.64;64.13
30744;BME280;17486;46.738;7.622;2023-11-18T00:38:44;96108.97;;;6.56;64.47
30744;BME280;17486;46.738;7.622;2023-11-18T00:41:09;96099.63;;;6.50;64.45
30744;BME280;17486;46.738;7.622;2023-11-18T00:43:35;96058.84;;;6.22;64.73
30744;BME280;17486;46.738;7.622;2023-11-18T00:46:01;96075.00;;;6.32;64.22
30744;BME280;17486;46.738;7.622;2023-11-18T00:48:28;96106.56;;;6.46;64.26
30744;BME280;17486;46.738;7.622;2023-11-18T00:50:53;96082.78;;;6.30;64.63
30744;BME280;17486;46.738;7.622;2023-11-18T00:53:19;96087.06;;;6.32;64.68
30744;BME280;17486;46.738;7.622;2023-11-18T00:55:44;96112.75;;;6.39;64.45
30744;BME280;17486;46.738;7.622;2023-11-18T00:58:10;96109.34;;;6.37;64.34
30744;BME280;17486;46.738;7.622;2023-11-18T01:00:36;96122.28;;;6.36;64.02
30744;BME280;17486;46.738;7.622;2023-11-18T01:03:01;96124.91;;;6.33;64.24
30744;BME280;17486;46.738;7.622;2023-11-18T01:05:27;96126.72;;;6.27;64.17
30744;BME280;17486;46.738;7.622;2023-11-18T01:07:52;96093.53;;;6.07;64.15
30744;BME280;17486;46.738;7.622;2023-11-18T01:10:18;96120.78;;;6.24;64.62
30744;BME280;17486;46.738;7.622;2023-11-18T01:12:44;96114.09;;;6.13;64.07
30744;BME280;17486;46.738;7.622;2023-11-18T01:15:10;96129.47;;;6.20;64.41
30744;BME280;17486;46.738;7.622;2023-11-18T01:17:36;96133.81;;;6.18;64.48
30744;BME280;17486;46.738;7.622;2023-11-18T01:20:01;96120.19;;;6.09;64.47
30744;BME280;17486;46.738;7.622;2023-11-18T01:22:33;96098.09;;;5.91;64.76
30744;BME280;17486;46.738;7.622;2023-11-18T01:24:59;96124.47;;;6.09;64.84
30744;BME280;17486;46.738;7.622;2023-11-18T01:27:25;96128.06;;;6.02;64.14
30744;BME280;17486;46.738;7.622;2023-11-18T01:29:50;96126.44;;;5.94;64.50
30744;BME280;17486;46.738;7.622;2023-11-18T01:32:16;96091.66;;;5.64;64.45
30744;BME280;17486;46.738;7.622;2023-11-18T01:34:42;96126.63;;;5.84;64.16
30744;BME280;17486;46.738;7.622;2023-11-18T01:37:09;96124.09;;;5.79;64.56
30744;BME280;17486;46.738;7.622;2023-11-18T01:39:35;96138.66;;;5.85;64.34
30744;BME280;17486;46.738;7.622;2023-11-18T01:42:01;96113.09;;;5.69;64.27
30744;BME280;17486;46.738;7.622;2023-11-18T01:44:29;96129.38;;;5.73;64.13
30744;BME280;17486;46.738;7.622;2023-11-18T01:46:58;96134.56;;;5.71;64.67
30744;BME280;17486;46.738;7.622;2023-11-18T01:49:25;96136.41;;;5.63;64.72
30744;BME280;17486;46.738;7.622;2023-11-18T01:51:52;96129.59;;;5.59;65.14
30744;BME280;17486;46.738;7.622;2023-11-18T01:54:18;96127.16;;;5.50;65.16
30744;BME280;17486;46.738;7.622;2023-11-18T01:56:47;96106.72;;;5.37;65.29
30744;BME280;17486;46.738;7.622;2023-11-18T01:59:13;96095.63;;;5.30;65.46
30744;BME280;17486;46.738;7.622;2023-11-18T02:01:52;96126.31;;;5.47;64.97
30744;BME280;17486;46.738;7.622;2023-11-18T02:04:19;96144.28;;;5.54;65.46
30744;BME280;17486;46.738;7.622;2023-11-18T02:06:46;96088.81;;;5.28;65.47
30744;BME280;17486;46.738;7.622;2023-11-18T02:09:17;96129.66;;;5.56;65.28
30744;BME280;17486;46.738;7.622;2023-11-18T02:11:55;96116.78;;;5.54;65.08
30744;BME280;17486;46.738;7.622;2023-11-18T02:14:26;96105.66;;;5.47;65.11
30744;BME280;17486;46.738;7.622;2023-11-18T02:16:52;96114.13;;;5.57;65.49
30744;BME280;17486;46.738;7.622;2023-11-18T02:19:23;96114.09;;;5.59;64.89
30744;BME280;17486;46.738;7.622;2023-11-18T02:21:50;96101.16;;;5.62;65.21
30744;BME280;17486;46.738;7.622;2023-11-18T02:26:53;96088.41;;;5.54;64.52
30744;BME280;17486;46.738;7.622;2023-11-18T02:29:22;96060.28;;;5.36;65.00
30744;BME280;17486;46.738;7.622;2023-11-18T02:31:50;96071.38;;;5.42;65.20
30744;BME280;17486;46.738;7.622;2023-11-18T02:34:21;96056.03;;;5.33;64.77
30744;BME280;17486;46.738;7.622;2023-11-18T02:36:49;96014.28;;;5.09;65.01
30744;BME280;17486;46.738;7.622;2023-11-18T02:39:32;96078.28;;;5.40;64.52
30744;BME280;17486;46.738;7.622;2023-11-18T02:42:03;96068.81;;;5.41;64.98
30744;BME280;17486;46.738;7.622;2023-11-18T02:44:34;96064.63;;;5.34;64.81
30744;BME280;17486;46.738;7.622;2023-11-18T02:47:01;96070.56;;;5.39;64.90
30744;BME280;17486;46.738;7.622;2023-11-18T02:49:26;96081.75;;;5.38;64.86
30744;BME280;17486;46.738;7.622;2023-11-18T02:51:53;96065.50;;;5.32;64.61
30744;BME280;17486;46.738;7.622;2023-11-18T02:54:18;96069.91;;;5.26;65.01
30744;BME280;17486;46.738;7.622;2023-11-18T02:56:45;96048.75;;;5.04;64.41
30744;BME280;17486;46.738;7.622;2023-11-18T02:59:10;96084.53;;;5.27;64.42
30744;BME280;17486;46.738;7.622;2023-11-18T03:01:36;96072.63;;;5.17;64.36
30744;BME280;17486;46.738;7.622;2023-11-18T03:04:04;96087.06;;;5.28;64.02
30744;BME280;17486;46.738;7.622;2023-11-18T03:06:30;96099.13;;;5.28;63.68
30744;BME280;17486;46.738;7.622;2023-11-18T03:08:58;96050.56;;;4.97;64.26
30744;BME280;17486;46.738;7.622;2023-11-18T03:11:23;96094.06;;;5.22;63.97
30744;BME280;17486;46.738;7.622;2023-11-18T03:13:49;96088.09;;;5.17;64.08
30744;BME280;17486;46.738;7.622;2023-11-18T03:16:15;96102.66;;;5.21;63.88
30744;BME280;17486;46.738;7.622;2023-11-18T03:18:41;96101.81;;;5.20;63.88
30744;BME280;17486;46.738;7.622;2023-11-18T03:21:13;96099.22;;;5.19;64.38
30744;BME280;17486;46.738;7.622;2023-11-18T03:23:39;96101.00;;;5.17;64.29
30744;BME280;17486;46.738;7.622;2023-11-18T03:26:06;96086.50;;;5.08;64.12
30744;BME280;17486;46.738;7.622;2023-11-18T03:28:32;96095.03;;;5.13;64.05
30744;BME280;17486;46.738;7.622;2023-11-18T03:30:58;96097.66;;;5.10;64.60
30744;BME280;17486;46.738;7.622;2023-11-18T03:33:24;96085.75;;;5.01;64.82
30744;BME280;17486;46.738;7.622;2023-11-18T03:35:49;96097.72;;;5.05;64.67
30744;BME280;17486;46.738;7.622;2023-11-18T03:38:15;96096.06;;;5.01;64.36
30744;BME280;17486;46.738;7.622;2023-11-18T03:40:42;96082.47;;;4.91;64.69
30744;BME280;17486;46.738;7.622;2023-11-18T03:43:10;96102.94;;;4.99;64.46
30744;BME280;17486;46.738;7.622;2023-11-18T03:45:38;96089.44;;;4.81;64.97
30744;BME280;17486;46.738;7.622;2023-11-18T03:48:04;96105.53;;;5.01;64.90
30744;BME280;17486;46.738;7.622;2023-11-18T03:50:29;96109.78;;;5.02;64.26
30744;BME280;17486;46.738;7.622;2023-11-18T03:52:55;96088.44;;;4.93;64.29
30744;BME280;17486;46.738;7.622;2023-11-18T03:55:20;96111.53;;;5.01;64.66
30744;BME280;17486;46.738;7.622;2023-11-18T03:57:45;96099.56;;;4.97;64.66
30744;BME280;17486;46.738;7.622;2023-11-18T04:00:11;96084.28;;;4.81;64.66
30744;BME280;17486;46.738;7.622;2023-11-18T04:02:40;96099.53;;;4.98;64.05
30744;BME280;17486;46.738;7.622;2023-11-18T04:05:06;96101.25;;;4.98;64.43
30744;BME280;17486;46.738;7.622;2023-11-18T04:07:33;96058.59;;;4.75;64.75
30744;BME280;17486;46.738;7.622;2023-11-18T04:09:59;96099.56;;;4.97;63.97
30744;BME280;17486;46.738;7.622;2023-11-18T04:12:25;96087.53;;;4.96;63.90
30744;BME280;17486;46.738;7.622;2023-11-18T04:14:52;96097.84;;;4.96;64.64
30744;BME280;17486;46.738;7.622;2023-11-18T04:17:18;96043.25;;;4.69;63.97
30744;BME280;17486;46.738;7.622;2023-11-18T04:19:43;96084.19;;;4.89;64.06
30744;BME280;17486;46.738;7.622;2023-11-18T04:22:08;96085.09;;;4.85;64.44
30744;BME280;17486;46.738;7.622;2023-11-18T04:24:34;96071.47;;;4.75;64.73
30744;BME280;17486;46.738;7.622;2023-11-18T04:27:00;96085.16;;;4.80;64.91
30744;BME280;17486;46.738;7.622;2023-11-18T04:29:25;96094.59;;;4.81;64.97
30744;BME280;17486;46.738;7.622;2023-11-18T04:31:52;96084.25;;;4.85;64.71
30744;BME280;17486;46.738;7.622;2023-11-18T04:34:18;96079.94;;;4.87;64.58
30744;BME280;17486;46.738;7.622;2023-11-18T04:36:44;96069.81;;;4.74;64.47
30744;BME280;17486;46.738;7.622;2023-11-18T04:39:09;96092.75;;;4.90;64.92
30744;BME280;17486;46.738;7.622;2023-11-18T04:41:37;96085.03;;;4.90;64.47
30744;BME280;17486;46.738;7.622;2023-11-18T04:44:03;96083.28;;;4.93;64.75
30744;BME280;17486;46.738;7.622;2023-11-18T04:46:28;96070.47;;;4.89;64.60
30744;BME280;17486;46.738;7.622;2023-11-18T04:48:53;96078.97;;;4.95;64.52
30744;BME280;17486;46.738;7.622;2023-11-18T04:51:20;96066.91;;;4.96;64.09
30744;BME280;17486;46.738;7.622;2023-11-18T04:53:47;96074.66;;;4.94;64.28
30744;BME280;17486;46.738;7.622;2023-11-18T04:56:13;96061.84;;;4.90;64.85
30744;BME280;17486;46.738;7.622;2023-11-18T04:58:42;96066.97;;;4.93;64.43
30744;BME280;17486;46.738;7.622;2023-11-18T05:01:08;96070.47;;;4.87;63.88
30744;BME280;17486;46.738;7.622;2023-11-18T05:03:34;96067.91;;;4.86;63.69
30744;BME280;17486;46.738;7.622;2023-11-18T05:06:00;96071.38;;;4.83;63.84
30744;BME280;17486;46.738;7.622;2023-11-18T05:08:26;96040.75;;;4.61;63.67
30744;BME280;17486;46.738;7.622;2023-11-18T05:10:51;96036.38;;;4.68;64.04
30744;BME280;17486;46.738;7.622;2023-11-18T05:13:17;96061.88;;;4.87;63.69
30744;BME280;17486;46.738;7.622;2023-11-18T05:15:44;96066.16;;;4.89;64.25
30744;BME280;17486;46.738;7.622;2023-11-18T05:18:13;96050.78;;;4.81;63.75
30744;BME280;17486;46.738;7.622;2023-11-18T05:20:42;96072.06;;;4.96;64.02
30744;BME280;17486;46.738;7.622;2023-11-18T05:23:08;96064.38;;;4.93;63.97
30744;BME280;17486;46.738;7.622;2023-11-18T05:25:39;96043.91;;;4.84;63.96
30744;BME280;17486;46.738;7.622;2023-11-18T05:28:04;96051.63;;;4.84;64.05
30744;BME280;17486;46.738;7.622;2023-11-18T05:30:30;96054.22;;;4.84;63.87
30744;BME280;17486;46.738;7.622;2023-11-18T05:32:57;96069.50;;;4.94;63.77
30744;BME280;17486;46.738;7.622;2023-11-18T05:35:24;96064.38;;;4.93;63.70
30744;BME280;17486;46.738;7.622;2023-11-18T05:37:54;96090.84;;;5.04;64.24
30744;BME280;17486;46.738;7.622;2023-11-18T05:40:19;96086.66;;;4.97;64.02
30744;BME280;17486;46.738;7.622;2023-11-18T05:42:45;96037.97;;;4.75;63.67
30744;BME280;17486;46.738;7.622;2023-11-18T05:45:13;96051.63;;;4.82;64.08
30744;BME280;17486;46.738;7.622;2023-11-18T05:47:55;96070.41;;;4.92;64.18
30744;BME280;17486;46.738;7.622;2023-11-18T05:50:22;96051.66;;;4.80;64.10
30744;BME280;17486;46.738;7.622;2023-11-18T05:52:50;96055.03;;;4.86;64.45
30744;BME280;17486;46.738;7.622;2023-11-18T05:55:15;96037.13;;;4.76;64.36
30744;BME280;17486;46.738;7.622;2023-11-18T05:57:41;96008.97;;;4.61;64.26
30744;BME280;17486;46.738;7.622;2023-11-18T06:00:13;95995.41;;;4.48;64.00
30744;BME280;17486;46.738;7.622;2023-11-18T06:02:41;96064.50;;;4.84;64.36
30744;BME280;17486;46.738;7.622;2023-11-18T06:05:08;96048.34;;;4.72;63.65
30744;BME280;17486;46.738;7.622;2023-11-18T06:07:33;96056.78;;;4.84;64.71
30744;BME280;17486;46.738;7.622;2023-11-18T06:09:59;96081.56;;;4.92;63.97
30744;BME280;17486;46.738;7.622;2023-11-18T06:12:25;96073.81;;;4.92;64.38
30744;BME280;17486;46.738;7.622;2023-11-18T06:14:52;96082.44;;;4.93;64.49
30744;BME280;17486;46.738;7.622;2023-11-18T06:17:17;96039.88;;;4.64;63.92
30744;BME280;17486;46.738;7.622;2023-11-18T06:19:44;96076.47;;;4.89;64.27
30744;BME280;17486;46.738;7.622;2023-11-18T06:22:09;96073.84;;;4.91;64.36
30744;BME280;17486;46.738;7.622;2023-11-18T06:24:36;96076.44;;;4.91;63.46
30744;BME280;17486;46.738;7.622;2023-11-18T06:27:04;96059.31;;;4.87;64.23
30744;BME280;17486;46.738;7.622;2023-11-18T06:29:30;96079.81;;;4.94;63.74
30744;BME280;17486;46.738;7.622;2023-11-18T06:31:56;96060.28;;;4.79;63.70
30744;BME280;17486;46.738;7.622;2023-11-18T06:34:21;96045.72;;;4.75;63.43
30744;BME280;17486;46.738;7.622;2023-11-18T06:36:47;96069.59;;;4.88;62.87
30744;BME280;17486;46.738;7.622;2023-11-18T06:39:13;96070.50;;;4.84;63.00
30744;BME280;17486;46.738;7.622;2023-11-18T06:41:38;96079.00;;;4.91;62.48
30744;BME280;17486;46.738;7.622;2023-11-18T06:44:13;96078.97;;;4.92;62.18
30744;BME280;17486;46.738;7.622;2023-11-18T06:46:43;96062.75;;;4.86;62.83
30744;BME280;17486;46.738;7.622;2023-11-18T06:49:09;96042.28;;;4.75;62.46
30744;BME280;17486;46.738;7.622;2023-11-18T06:51:41;96061.84;;;4.90;62.23
30744;BME280;17486;46.738;7.622;2023-11-18T06:54:06;96074.69;;;4.93;62.72
30744;BME280;17486;46.738;7.622;2023-11-18T06:56:36;96065.25;;;4.92;62.49
30744;BME280;17486;46.738;7.622;2023-11-18T06:59:04;96052.34;;;4.93;62.04
30744;BME280;17486;46.738;7.622;2023-11-18T07:01:29;96045.53;;;4.89;61.91
30744;BME280;17486;46.738;7.622;2023-11-18T07:03:56;96038.63;;;4.90;62.31
30744;BME280;17486;46.738;7.622;2023-11-18T07:06:21;96048.94;;;4.91;61.74
30744;BME280;17486;46.738;7.622;2023-11-18T07:08:48;96046.47;;;4.84;61.42
30744;BME280;17486;46.738;7.622;2023-11-18T07:11:15;96013.22;;;4.67;61.66
30744;BME280;17486;46.738;7.622;2023-11-18T07:13:40;96020.03;;;4.68;61.25
30744;BME280;17486;46.738;7.622;2023-11-18T07:16:07;96053.22;;;4.91;60.98
30744;BME280;17486;46.738;7.622;2023-11-18T07:18:43;96060.91;;;4.95;60.85
30744;BME280;17486;46.738;7.622;2023-11-18T07:21:08;96032.75;;;4.81;61.10
30744;BME280;17486;46.738;7.622;2023-11-18T07:23:35;96050.50;;;5.03;60.93
30744;BME280;17486;46.738;7.622;2023-11-18T07:26:01;96040.25;;;4.97;61.03
30744;BME280;17486;46.738;7.622;2023-11-18T07:28:27;96067.47;;;5.17;60.51
30744;BME280;17486;46.738;7.622;2023-11-18T07:30:53;96085.44;;;5.23;60.72
30744;BME280;17486;46.738;7.622;2023-11-18T07:33:19;96081.97;;;5.25;60.93
30744;BME280;17486;46.738;7.622;2023-11-18T07:35:46;96088.75;;;5.31;60.96
30744;BME280;17486;46.738;7.622;2023-11-18T07:38:13;96094.59;;;5.41;60.20
30744;BME280;17486;46.738;7.622;2023-11-18T07:40:39;96085.03;;;5.47;60.40
30744;BME280;17486;46.738;7.622;2023-11-18T07:43:13;96055.97;;;5.38;60.65
30744;BME280;17486;46.738;7.622;2023-11-18T07:45:39;96077.25;;;5.51;60.38
30744;BME280;17486;46.738;7.622;2023-11-18T07:48:05;96089.06;;;5.65;60.80
30744;BME280;17486;46.738;7.622;2023-11-18T07:50:36;96095.84;;;5.70;60.83
30744;BME280;17486;46.738;7.622;2023-11-18T07:53:02;96052.41;;;5.46;60.83
30744;BME280;17486;46.738;7.622;2023-11-18T07:55:31;96087.28;;;5.69;60.90
30744;BME280;17486;46.738;7.622;2023-11-18T07:58:02;96096.63;;;5.75;60.50
30744;BME280;17486;46.738;7.622;2023-11-18T08:00:29;96081.22;;;5.72;60.25
30744;BME280;17486;46.738;7.622;2023-11-18T08:02:58;96082.94;;;5.73;60.34
30744;BME280;17486;46.738;7.622;2023-11-18T08:05:26;96098.25;;;5.82;60.27
30744;BME280;17486;46.738;7.622;2023-11-18T08:07:51;96074.47;;;5.63;60.84
30744;BME280;17486;46.738;7.622;2023-11-18T08:10:18;96087.19;;;5.75;60.63
30744;BME280;17486;46.738;7.622;2023-11-18T08:12:45;96090.56;;;5.77;60.74
30744;BME280;17486;46.738;7.622;2023-11-18T08:15:10;96089.63;;;5.81;60.83
30744;BME280;17486;46.738;7.622;2023-11-18T08:17:36;96101.56;;;5.89;60.85
30744;BME280;17486;46.738;7.622;2023-11-18T08:20:02;96105.97;;;5.84;60.78
30744;BME280;17486;46.738;7.622;2023-11-18T08:22:41;96105.84;;;5.91;60.69
30744;BME280;17486;46.738;7.622;2023-11-18T08:25:11;96110.06;;;5.95;61.04
30744;BME280;17486;46.738;7.622;2023-11-18T08:27:41;96082.72;;;5.84;61.36
30744;BME280;17486;46.738;7.622;2023-11-18T08:30:07;96067.13;;;5.90;61.24
30744;BME280;17486;46.738;7.622;2023-11-18T08:32:41;96087.59;;;6.02;60.74
30744;BME280;17486;46.738;7.622;2023-11-18T08:35:13;96063.69;;;5.91;60.77
30744;BME280;17486;46.738;7.622;2023-11-18T08:37:42;96061.19;;;5.86;60.54
30744;BME280;17486;46.738;7.622;2023-11-18T08:40:08;96064.44;;;5.96;60.67
30744;BME280;17486;46.738;7.622;2023-11-18T08:42:50;96080.50;;;6.13;60.16
30744;BME280;17486;46.738;7.622;2023-11-18T08:45:16;96064.09;;;6.16;58.41
30744;BME280;17486;46.738;7.622;2023-11-18T08:47:44;96065.72;;;6.22;58.82
30744;BME280;17486;46.738;7.622;2023-11-18T08:50:12;96063.13;;;6.22;58.91
30744;BME280;17486;46.738;7.622;2023-11-18T08:52:39;96024.75;;;6.03;58.70
30744;BME280;17486;46.738;7.622;2023-11-18T08:55:11;96052.78;;;6.22;58.37
30744;BME280;17486;46.738;7.622;2023-11-18T08:57:46;96048.53;;;6.19;57.28
30744;BME280;17486;46.738;7.622;2023-11-18T09:00:27;96035.56;;;6.24;57.40
30744;BME280;17486;46.738;7.622;2023-11-18T09:03:14;95994.50;;;6.10;58.06
30744;BME280;17486;46.738;7.622;2023-11-18T09:05:52;96029.13;;;6.42;57.72
30744;BME280;17486;46.738;7.622;2023-11-18T09:08:36;96028.00;;;6.57;58.02
30744;BME280;17486;46.738;7.622;2023-11-18T09:11:11;96021.69;;;6.69;58.13
30744;BME280;17486;46.738;7.622;2023-11-18T09:13:40;96027.50;;;6.78;58.52
30744;BME280;17486;46.738;7.622;2023-11-18T09:16:06;96022.22;;;6.85;58.64
30744;BME280;17486;46.738;7.622;2023-11-18T09:18:39;95994.84;;;6.74;58.35
30744;BME280;17486;46.738;7.622;2023-11-18T09:21:06;96002.94;;;6.98;57.33
30744;BME280;17486;46.738;7.622;2023-11-18T09:23:33;96013.06;;;7.07;58.00
30744;BME280;17486;46.738;7.622;2023-11-18T09:26:03;96010.28;;;7.17;56.67
30744;BME280;17486;46.738;7.622;2023-11-18T09:28:33;96004.91;;;7.24;56.20
30744;BME280;17486;46.738;7.622;2023-11-18T09:31:01;95958.66;;;7.12;55.88
30744;BME280;17486;46.738;7.622;2023-11-18T09:33:29;95958.34;;;7.24;55.32
30744;BME280;17486;46.738;7.622;2023-11-18T09:36:02;96002.53;;;7.51;56.06
30744;BME280;17486;46.738;7.622;2023-11-18T09:38:29;96007.47;;;7.60;56.09
30744;BME280;17486;46.738;7.622;2023-11-18T09:40:56;95979.88;;;7.59;56.63
30744;BME280;17486;46.738;7.622;2023-11-18T09:43:24;95975.72;;;7.54;56.92
30744;BME280;17486;46.738;7.622;2023-11-18T09:45:55;96015.63;;;7.79;57.41
30744;BME280;17486;46.738;7.622;2023-11-18T09:48:20;96012.94;;;7.83;57.11
30744;BME280;17486;46.738;7.622;2023-11-18T09:50:51;96011.34;;;7.78;55.10
30744;BME280;17486;46.738;7.622;2023-11-18T09:53:17;96030.97;;;7.86;55.00
30744;BME280;17486;46.738;7.622;2023-11-18T09:56:00;96043.63;;;7.98;55.02
30744;BME280;17486;46.738;7.622;2023-11-18T09:58:37;96038.50;;;7.95;55.37
30744;BME280;17486;46.738;7.622;2023-11-18T10:01:06;96033.22;;;8.00;54.65
30744;BME280;17486;46.738;7.622;2023-11-18T10:03:32;96024.47;;;8.04;54.86
30744;BME280;17486;46.738;7.622;2023-11-18T10:06:02;96002.97;;;8.00;55.01
30744;BME280;17486;46.738;7.622;2023-11-18T10:08:31;96027.69;;;8.13;54.92
30744;BME280;17486;46.738;7.622;2023-11-18T10:10:56;96016.66;;;8.05;55.03
30744;BME280;17486;46.738;7.622;2023-11-18T10:13:31;96039.31;;;8.30;54.73
30744;BME280;17486;46.738;7.622;2023-11-18T10:16:01;96032.34;;;8.32;54.60
30744;BME280;17486;46.738;7.622;2023-11-18T10:18:27;96022.09;;;8.27;54.77
30744;BME280;17486;46.738;7.622;2023-11-18T10:20:53;95992.16;;;8.17;54.51
30744;BME280;17486;46.738;7.622;2023-11-18T10:23:21;96033.84;;;8.39;54.31
30744;BME280;17486;46.738;7.622;2023-11-18T10:25:54;96010.78;;;8.30;54.46
30744;BME280;17486;46.738;7.622;2023-11-18T10:30:58;96025.56;;;8.59;54.30
30744;BME280;17486;46.738;7.622;2023-11-18T10:33:26;96026.28;;;8.63;54.25
30744;BME280;17486;46.738;7.622;2023-11-18T10:35:59;96038.97;;;8.74;53.93
30744;BME280;17486;46.738;7.622;2023-11-18T10:38:30;96039.69;;;8.77;53.54
30744;BME280;17486;46.738;7.622;2023-11-18T10:40:57;96027.44;;;8.83;53.36
30744;BME280;17486;46.738;7.622;2023-11-18T10:43:23;96011.81;;;8.86;53.27
30744;BME280;17486;46.738;7.622;2023-11-18T10:46:10;96000.56;;;8.85;53.41
30744;BME280;17486;46.738;7.622;2023-11-18T10:48:43;96012.25;;;9.00;52.60
30744;BME280;17486;46.738;7.622;2023-11-18T10:51:13;96023.31;;;9.05;52.75
30744;BME280;17486;46.738;7.622;2023-11-18T10:53:44;96023.22;;;9.08;52.51
30744;BME280;17486;46.738;7.622;2023-11-18T10:56:24;96018.13;;;9.05;52.23
30744;BME280;17486;46.738;7.622;2023-11-18T10:59:06;96019.03;;;9.04;52.33
30744;BME280;17486;46.738;7.622;2023-11-18T11:01:34;96037.25;;;9.01;51.70
30744;BME280;17486;46.738;7.622;2023-11-18T11:04:04;96048.56;;;9.00;52.18
30744;BME280;17486;46.738;7.622;2023-11-18T11:06:32;96054.72;;;8.96;52.12
30744;BME280;17486;46.738;7.622;2023-11-18T11:08:58;96057.41;;;8.93;52.08
30744;BME280;17486;46.738;7.622;2023-11-18T11:11:40;96065.19;;;8.93;51.90
30744;BME280;17486;46.738;7.622;2023-11-18T11:14:08;96057.50;;;8.90;52.26
30744;BME280;17486;46.738;7.622;2023-11-18T11:16:41;96052.31;;;8.90;52.00
30744;BME280;17486;46.738;7.622;2023-11-18T11:19:25;96063.59;;;8.89;52.57
30744;BME280;17486;46.738;7.622;2023-11-18T11:22:07;96028.78;;;8.68;52.66
30744;BME280;17486;46.738;7.622;2023-11-18T11:24:57;96055.09;;;8.84;53.40
30744;BME280;17486;46.738;7.622;2023-11-18T11:27:32;96073.84;;;8.93;52.66
30744;BME280;17486;46.738;7.622;2023-11-18T11:32:45;96038.28;;;8.67;52.67
30744;BME280;17486;46.738;7.622;2023-11-18T11:35:19;96080.88;;;8.90;52.69
30744;BME280;17486;46.738;7.622;2023-11-18T11:37:48;96088.59;;;8.91;52.86
30744;BME280;17486;46.738;7.622;2023-11-18T11:40:14;96069.81;;;8.83;52.67
30744;BME280;17486;46.738;7.622;2023-11-18T11:42:48;96086.13;;;8.87;52.54
30744;BME280;17486;46.738;7.622;2023-11-18T11:45:15;96072.69;;;8.72;52.63
30744;BME280;17486;46.738;7.622;2023-11-18T11:47:55;96058.56;;;8.53;52.65
30744;BME280;17486;46.738;7.622;2023-11-18T11:50:53;96110.03;;;8.67;53.12
30744;BME280;17486;46.738;7.622;2023-11-18T11:53:24;96075.34;;;8.39;53.62
30744;BME280;17486;46.738;7.622;2023-11-18T11:55:53;96092.50;;;8.43;54.17
30744;BME280;17486;46.738;7.622;2023-11-18T11:58:29;96109.91;;;8.40;54.10
30744;BME280;17486;46.738;7.622;2023-11-18T12:01:01;96107.41;;;8.35;54.45
30744;BME280;17486;46.738;7.622;2023-11-18T12:03:32;96108.38;;;8.31;54.73
30744;BME280;17486;46.738;7.622;2023-11-18T12:06:01;96101.50;;;8.30;54.70
30744;BME280;17486;46.738;7.622;2023-11-18T12:08:35;96098.19;;;8.25;54.59
30744;BME280;17486;46.738;7.622;2023-11-18T12:11:01;96093.03;;;8.23;54.81
30744;BME280;17486;46.738;7.622;2023-11-18T12:13:27;96047.00;;;8.00;54.99
30744;BME280;17486;46.738;7.622;2023-11-18T12:15:54;96093.03;;;8.23;54.45
30744;BME280;17486;46.738;7.622;2023-11-18T12:18:23;96092.22;;;8.21;54.14
30744;BME280;17486;46.738;7.622;2023-11-18T12:20:49;96085.44;;;8.17;53.94
30744;BME280;17486;46.738;7.622;2023-11-18T12:23:22;96077.69;;;8.16;54.29
30744;BME280;17486;46.738;7.622;2023-11-18T12:25:51;96090.44;;;8.23;54.38
30744;BME280;17486;46.738;7.622;2023-11-18T12:31:00;96035.28;;;7.87;54.37
30744;BME280;17486;46.738;7.622;2023-11-18T12:42:07;96012.59;;;7.95;54.88
30744;BME280;17486;46.738;7.622;2023-11-18T12:47:24;96026.75;;;8.14;54.90
30744;BME280;17486;46.738;7.622;2023-11-18T12:49:53;96039.44;;;8.25;55.64
30744;BME280;17486;46.738;7.622;2023-11-18T12:52:21;96032.59;;;8.23;55.83
30744;BME280;17486;46.738;7.622;2023-11-18T12:54:47;95988.47;;;7.94;56.50
30744;BME280;17486;46.738;7.622;2023-11-18T12:57:22;96001.66;;;8.17;56.62
30744;BME280;17486;46.738;7.622;2023-11-18T12:59:51;95983.31;;;8.24;56.90
30744;BME280;17486;46.738;7.622;2023-11-18T13:02:17;95978.03;;;8.27;57.70
30744;BME280;17486;46.738;7.622;2023-11-18T13:04:46;95962.81;;;8.17;58.35
30744;BME280;17486;46.738;7.622;2023-11-18T13:07:17;95926.25;;;7.96;56.18
30744;BME280;17486;46.738;7.622;2023-11-18T13:09:43;95968.75;;;8.20;55.81
30744;BME280;17486;46.738;7.622;2023-11-18T13:12:11;95953.22;;;8.20;55.99
30744;BME280;17486;46.738;7.622;2023-11-18T13:14:41;95953.16;;;8.22;56.09
30744;BME280;17486;46.738;7.622;2023-11-18T13:17:12;95953.00;;;8.26;56.65
30744;BME280;17486;46.738;7.622;2023-11-18T13:19:41;95952.00;;;8.32;56.80
30744;BME280;17486;46.738;7.622;2023-11-18T13:22:08;95961.59;;;8.28;56.52
30744;BME280;17486;46.738;7.622;2023-11-18T13:24:38;95938.72;;;8.13;56.56
30744;BME280;17486;46.738;7.622;2023-11-18T13:27:09;95957.13;;;8.34;57.09
30744;BME280;17486;46.738;7.622;2023-11-18T13:29:36;95898.38;;;8.04;56.21
30744;BME280;17486;46.738;7.622;2023-11-18T13:32:04;95902.72;;;8.04;56.49
30744;BME280;17486;46.738;7.622;2023-11-18T13:34:33;95932.47;;;8.20;57.20
30744;BME280;17486;46.738;7.622;2023-11-18T13:37:00;95929.84;;;8.22;57.38
30744;BME280;17486;46.738;7.622;2023-11-18T13:39:26;95931.75;;;8.15;57.79